首页
METAR-TAF:

METAR-TAF

机场 :

威尼斯-泰塞拉机场

威尼斯, 意大利

纬度: 45-30N, 经度: 012-20E, 海拔: 2米

当前天气观测

该预报发布于38分钟前的06:20 UTC
风速4节,风向西
温度 14°C
湿度 88%
气压 1004 hPa
能见度10公里或以上
少量云层高于1000英尺

METAR: LIPZ 130620Z 28004KT 9999 FEW010 14/12 Q1004 NOSIG

时间: 08:58 (06:58 UTC)

预报

该预报发布于1小时和58分钟前的05:00 UTC
预报有效从13日的 06点(UTC)到 14日的 12点(UTC)
风速7节,风向北转东北
能見度: 8000
散云层高于2000英尺
短暂存在
从 13日的 09点(UTC)到 13日的 18点(UTC)
雷暴, 雨
成为
从 13日的 10点(UTC)到 13日的 12点(UTC)
风速10节,风向南转南东

TAF: LIPZ 130500Z 1306/1412 03007KT 8000 SCT020 TEMPO 1309/1318 TSRA BECMG 1310/1312 15010KT

超过4000个机场的气象观测和天气预报(METAR&TAF报告)。

可查询的气象台以黄色和红色小点在地图上表示。

将鼠标移到小点上方,可查看气象台名称。

然后点击查看天气观测和预报。

如需切换地图:点击带黑十字的绿色按钮放大地图;点击带横线的绿色按钮缩小地图;或者点击绿色箭头查看邻近地区的地图。


METAR-TAF: